Time;durP1;ratioP1;P1;durP2;ratioP2;P2;SDS_P1;SDS_P2;PMS_P1;PMS_P2;Temp;Humidity;BMP_temperature;BMP_pressure;BME280_temperature;BME280_humidity;BME280_pressure;Samples;Min_cycle;Max_cycle;Signal;HPM_P1;HPM_P2
2021/12/01 00:00:13;;;;;;;2.85;1.90;;;;;;;;;;5017195;28;20108;-90
2021/12/01 00:02:40;;;;;;;3.35;1.80;;;;;;;;;;5017404;28;20045;-90
2021/12/01 00:05:09;;;;;;;3.38;1.90;;;;;;;;;;5016012;28;20632;-91
2021/12/01 00:07:37;;;;;;;3.15;1.83;;;;;;;;;;5016297;28;20034;-90
2021/12/01 00:10:07;;;;;;;2.28;1.75;;;;;;;;;;5026751;28;20117;-89
2021/12/01 00:12:34;;;;;;;2.70;1.85;;;;;;;;;;5036064;28;20038;-89
2021/12/01 00:15:00;;;;;;;4.47;2.03;;;;;;;;;;5035443;28;20030;-91
2021/12/01 00:17:26;;;;;;;3.38;1.80;;;;;;;;;;5036000;28;20018;-91
2021/12/01 00:19:53;;;;;;;3.78;1.85;;;;;;;;;;5036637;28;20029;-91
2021/12/01 00:22:20;;;;;;;2.70;1.75;;;;;;;;;;5038983;28;20121;-91
2021/12/01 00:24:45;;;;;;;2.38;1.70;;;;;;;;;;5037814;28;20030;-90
2021/12/01 00:27:11;;;;;;;2.65;1.85;;;;;;;;;;5037725;28;20076;-90
2021/12/01 00:29:38;;;;;;;2.88;1.60;;;;;;;;;;5033386;28;20096;-91
2021/12/01 00:32:04;;;;;;;3.03;1.63;;;;;;;;;;5015592;28;20034;-91
2021/12/01 00:34:32;;;;;;;2.28;1.60;;;;;;;;;;5013816;28;20045;-91
2021/12/01 00:36:58;;;;;;;2.75;1.80;;;;;;;;;;5015102;28;20045;-90
2021/12/01 00:39:24;;;;;;;3.53;1.75;;;;;;;;;;5013309;28;20048;-90
2021/12/01 00:41:51;;;;;;;2.78;1.80;;;;;;;;;;5014959;28;20044;-91
2021/12/01 00:44:17;;;;;;;3.08;1.70;;;;;;;;;;5014776;28;20416;-90
2021/12/01 00:49:39;;;;;;;2.72;1.70;;;;;;;;;;5008826;28;20055;-90
2021/12/01 00:52:05;;;;;;;2.95;1.60;;;;;;;;;;5012866;28;20407;-89
2021/12/01 00:54:32;;;;;;;3.85;1.85;;;;;;;;;;5012314;28;20045;-90
2021/12/01 00:56:58;;;;;;;2.63;1.58;;;;;;;;;;5014298;28;20046;-90
2021/12/01 00:59:24;;;;;;;5.00;1.80;;;;;;;;;;5014952;28;20484;-91
2021/12/01 01:01:51;;;;;;;2.15;1.80;;;;;;;;;;5017481;28;20061;-90
2021/12/01 01:04:17;;;;;;;2.72;1.77;;;;;;;;;;5021901;28;20034;-90
2021/12/01 01:06:43;;;;;;;1.60;1.48;;;;;;;;;;5022968;28;20048;-91
2021/12/01 01:09:10;;;;;;;2.97;1.50;;;;;;;;;;5020408;28;20526;-91
2021/12/01 01:17:22;;;;;;;2.35;1.50;;;;;;;;;;5020375;28;20364;-92
2021/12/01 01:19:48;;;;;;;2.17;1.50;;;;;;;;;;5016580;28;20468;-90
2021/12/01 01:22:14;;;;;;;1.50;1.15;;;;;;;;;;5018093;28;20045;-90
2021/12/01 01:24:40;;;;;;;2.13;1.35;;;;;;;;;;5020297;28;20026;-90
2021/12/01 01:27:06;;;;;;;1.65;1.20;;;;;;;;;;5019699;28;20038;-90
2021/12/01 01:29:36;;;;;;;1.20;1.10;;;;;;;;;;5020183;28;20523;-90
2021/12/01 01:32:03;;;;;;;1.70;1.20;;;;;;;;;;5019428;28;20034;-89
2021/12/01 01:34:29;;;;;;;1.00;0.90;;;;;;;;;;5020040;28;20388;-90
2021/12/01 01:36:55;;;;;;;1.42;1.10;;;;;;;;;;5018282;28;20113;-91
2021/12/01 01:39:21;;;;;;;1.23;1.13;;;;;;;;;;5020012;28;20038;-90
2021/12/01 01:41:47;;;;;;;1.33;1.05;;;;;;;;;;5021028;28;20098;-90
2021/12/01 01:44:13;;;;;;;1.05;0.98;;;;;;;;;;5019786;28;20373;-91
2021/12/01 01:46:40;;;;;;;2.15;1.35;;;;;;;;;;5018113;28;20076;-91
2021/12/01 01:49:19;;;;;;;1.08;1.08;;;;;;;;;;5019145;28;20030;-90
2021/12/01 01:51:49;;;;;;;1.65;1.20;;;;;;;;;;5016192;28;20053;-90
2021/12/01 01:54:16;;;;;;;0.90;0.90;;;;;;;;;;5020702;28;20042;-91
2021/12/01 01:56:43;;;;;;;0.93;0.90;;;;;;;;;;5024465;28;20033;-90
2021/12/01 01:59:10;;;;;;;0.80;0.80;;;;;;;;;;5023237;28;20034;-90
2021/12/01 02:01:46;;;;;;;0.50;0.50;;;;;;;;;;5022178;28;20392;-90
2021/12/01 02:04:18;;;;;;;1.48;0.80;;;;;;;;;;5024289;28;20048;-91
2021/12/01 02:06:47;;;;;;;0.68;0.68;;;;;;;;;;5023202;28;20042;-92
2021/12/01 02:09:16;;;;;;;0.70;0.70;;;;;;;;;;5024097;28;20515;-91
2021/12/01 02:11:42;;;;;;;0.85;0.70;;;;;;;;;;5027155;28;20036;-90
2021/12/01 02:14:09;;;;;;;0.68;0.68;;;;;;;;;;5026962;28;20049;-90
2021/12/01 02:16:35;;;;;;;0.45;0.43;;;;;;;;;;5026135;28;20034;-90
2021/12/01 02:19:01;;;;;;;0.50;0.50;;;;;;;;;;5026381;28;20041;-89
2021/12/01 02:21:29;;;;;;;0.50;0.50;;;;;;;;;;5028420;28;20371;-90
2021/12/01 02:23:57;;;;;;;0.93;0.75;;;;;;;;;;5029079;28;20048;-91
2021/12/01 02:26:24;;;;;;;0.65;0.65;;;;;;;;;;5025307;28;20069;-90
2021/12/01 02:28:53;;;;;;;0.90;0.90;;;;;;;;;;5026155;28;20048;-91
2021/12/01 02:31:21;;;;;;;0.57;0.57;;;;;;;;;;5026657;28;20445;-91
2021/12/01 02:33:48;;;;;;;0.60;0.60;;;;;;;;;;5027605;28;20042;-90
2021/12/01 02:36:15;;;;;;;0.70;0.70;;;;;;;;;;5040741;28;20046;-90
2021/12/01 02:38:43;;;;;;;1.05;0.80;;;;;;;;;;5008694;28;20053;-89
2021/12/01 02:41:10;;;;;;;0.60;0.60;;;;;;;;;;5006241;28;20042;-90
2021/12/01 02:43:36;;;;;;;0.77;0.77;;;;;;;;;;5008786;28;20042;-90
2021/12/01 02:46:03;;;;;;;0.73;0.73;;;;;;;;;;5008893;28;20046;-90
2021/12/01 02:48:29;;;;;;;1.02;0.73;;;;;;;;;;5010936;28;20039;-90
2021/12/01 02:50:56;;;;;;;1.08;0.98;;;;;;;;;;5011708;28;20060;-90
2021/12/01 02:53:23;;;;;;;2.72;1.10;;;;;;;;;;5009450;28;20057;-92
2021/12/01 02:55:58;;;;;;;1.85;1.17;;;;;;;;;;5009212;28;20041;-92
2021/12/01 02:58:26;;;;;;;1.10;1.00;;;;;;;;;;5008695;28;20038;-92
2021/12/01 03:00:54;;;;;;;4.15;1.20;;;;;;;;;;5010451;28;20400;-90
2021/12/01 03:03:21;;;;;;;1.20;1.08;;;;;;;;;;5010427;28;20022;-89
2021/12/01 03:05:48;;;;;;;3.58;1.92;;;;;;;;;;5015543;28;20044;-89
2021/12/01 03:08:19;;;;;;;2.53;1.40;;;;;;;;;;5031797;28;20040;-89
2021/12/01 03:10:48;;;;;;;3.42;1.40;;;;;;;;;;5031468;28;20026;-90
2021/12/01 03:13:15;;;;;;;1.95;1.40;;;;;;;;;;5028751;28;20424;-90
2021/12/01 03:15:42;;;;;;;2.97;1.35;;;;;;;;;;5044143;28;20032;-88
2021/12/01 03:18:09;;;;;;;4.43;1.80;;;;;;;;;;5031740;28;20030;-91
2021/12/01 03:20:35;;;;;;;3.58;1.55;;;;;;;;;;5014169;28;20044;-90
2021/12/01 03:23:01;;;;;;;3.25;1.70;;;;;;;;;;5015868;28;20041;-90
2021/12/01 03:25:30;;;;;;;4.03;2.20;;;;;;;;;;5015619;28;20399;-91
2021/12/01 03:27:56;;;;;;;2.70;1.75;;;;;;;;;;5014797;28;20050;-89
2021/12/01 03:30:22;;;;;;;3.30;1.80;;;;;;;;;;5014125;28;20044;-89
2021/12/01 03:32:49;;;;;;;3.75;1.80;;;;;;;;;;5020788;28;20053;-89
2021/12/01 03:35:16;;;;;;;4.35;1.83;;;;;;;;;;5036272;28;20056;-91
2021/12/01 03:37:44;;;;;;;3.63;1.83;;;;;;;;;;5035907;28;20060;-89
2021/12/01 03:40:12;;;;;;;3.33;1.90;;;;;;;;;;5035376;28;20020;-89
2021/12/01 03:42:38;;;;;;;3.50;1.80;;;;;;;;;;5035440;28;20044;-91
2021/12/01 03:45:05;;;;;;;4.78;2.30;;;;;;;;;;5029595;28;20034;-91
2021/12/01 03:47:31;;;;;;;3.63;2.00;;;;;;;;;;5024582;28;20034;-92
2021/12/01 03:49:58;;;;;;;3.22;1.95;;;;;;;;;;5035812;28;20056;-89
2021/12/01 03:52:24;;;;;;;4.55;2.00;;;;;;;;;;5036155;28;20053;-91
2021/12/01 03:54:51;;;;;;;3.78;2.08;;;;;;;;;;5034063;28;20030;-91
2021/12/01 03:57:18;;;;;;;4.88;2.75;;;;;;;;;;5032642;28;20056;-91
2021/12/01 03:59:44;;;;;;;6.45;3.35;;;;;;;;;;5034925;28;20050;-90
2021/12/01 04:02:10;;;;;;;8.35;4.45;;;;;;;;;;5019166;28;20399;-89
2021/12/01 04:04:37;;;;;;;5.22;2.40;;;;;;;;;;5013144;28;20066;-89
2021/12/01 04:07:03;;;;;;;4.25;2.38;;;;;;;;;;5015234;28;20483;-91
2021/12/01 04:09:30;;;;;;;6.43;2.80;;;;;;;;;;5014018;28;20377;-90
2021/12/01 04:11:56;;;;;;;10.75;6.40;;;;;;;;;;5014273;28;20053;-89
2021/12/01 04:14:22;;;;;;;5.65;2.55;;;;;;;;;;5012157;28;20037;-89
2021/12/01 04:16:49;;;;;;;9.13;5.38;;;;;;;;;;5012852;28;20060;-91
2021/12/01 04:19:15;;;;;;;3.47;2.10;;;;;;;;;;5012985;28;20041;-90
2021/12/01 04:21:41;;;;;;;4.95;2.20;;;;;;;;;;5012484;28;20041;-91
2021/12/01 04:24:08;;;;;;;4.45;2.28;;;;;;;;;;5012319;28;20071;-90
2021/12/01 04:26:35;;;;;;;4.05;2.40;;;;;;;;;;5015017;28;20034;-91
2021/12/01 04:29:03;;;;;;;3.83;2.03;;;;;;;;;;5016232;28;20045;-90
2021/12/01 04:31:31;;;;;;;3.47;1.90;;;;;;;;;;5014363;28;20045;-89
2021/12/01 04:33:58;;;;;;;3.22;1.80;;;;;;;;;;5015285;28;20117;-89
2021/12/01 04:36:37;;;;;;;3.75;1.95;;;;;;;;;;5029239;28;20399;-89
2021/12/01 04:39:07;;;;;;;2.72;1.90;;;;;;;;;;5015275;28;20030;-89
2021/12/01 04:41:41;;;;;;;3.47;1.75;;;;;;;;;;5015843;28;20061;-89
2021/12/01 04:44:14;;;;;;;3.75;2.03;;;;;;;;;;5014607;28;20357;-89
2021/12/01 04:46:43;;;;;;;3.80;2.00;;;;;;;;;;5013589;28;20041;-89
2021/12/01 04:49:11;;;;;;;3.55;1.90;;;;;;;;;;5015275;28;20049;-90
2021/12/01 04:51:40;;;;;;;3.58;1.90;;;;;;;;;;5015335;28;20029;-89
2021/12/01 04:54:06;;;;;;;2.25;1.50;;;;;;;;;;5015437;28;20050;-90
2021/12/01 04:56:32;;;;;;;3.03;1.77;;;;;;;;;;5014263;28;20438;-90
2021/12/01 04:58:58;;;;;;;3.53;2.05;;;;;;;;;;5015273;28;20109;-89
2021/12/01 05:01:24;;;;;;;4.03;2.05;;;;;;;;;;5032740;28;20045;-89
2021/12/01 05:03:50;;;;;;;4.32;2.15;;;;;;;;;;5014738;28;20045;-89
2021/12/01 05:06:17;;;;;;;3.30;1.85;;;;;;;;;;5020676;28;20593;-89
2021/12/01 05:08:44;;;;;;;3.45;2.08;;;;;;;;;;5029057;28;20057;-90
2021/12/01 05:11:10;;;;;;;5.13;2.13;;;;;;;;;;5031827;28;20038;-89
2021/12/01 05:13:36;;;;;;;3.38;1.92;;;;;;;;;;5026852;28;20042;-90
2021/12/01 05:16:02;;;;;;;3.95;2.00;;;;;;;;;;5025963;28;20041;-90
2021/12/01 05:18:28;;;;;;;4.72;1.90;;;;;;;;;;5025787;28;20042;-89
2021/12/01 05:20:54;;;;;;;3.63;2.00;;;;;;;;;;5032114;28;20049;-89
2021/12/01 05:23:20;;;;;;;3.92;2.10;;;;;;;;;;5032230;28;20033;-89
2021/12/01 05:25:57;;;;;;;4.32;2.47;;;;;;;;;;5032566;28;20038;-89
2021/12/01 05:28:23;;;;;;;3.92;2.30;;;;;;;;;;5022377;28;20048;-90
2021/12/01 05:30:50;;;;;;;6.43;2.60;;;;;;;;;;5027628;28;20322;-90
2021/12/01 05:33:16;;;;;;;6.38;3.05;;;;;;;;;;5031545;28;20042;-91
2021/12/01 05:35:43;;;;;;;5.60;2.88;;;;;;;;;;5021026;28;20042;-90
2021/12/01 05:38:09;;;;;;;6.03;2.67;;;;;;;;;;5013166;28;20042;-88
2021/12/01 05:40:35;;;;;;;5.60;2.40;;;;;;;;;;5014041;28;20042;-89
2021/12/01 05:43:02;;;;;;;4.72;2.50;;;;;;;;;;5013758;28;20045;-88
2021/12/01 05:45:28;;;;;;;4.00;2.33;;;;;;;;;;5019197;28;20030;-89
2021/12/01 05:47:54;;;;;;;5.25;2.70;;;;;;;;;;5028099;28;20044;-89
2021/12/01 05:50:21;;;;;;;4.82;2.40;;;;;;;;;;5013336;28;20022;-89
2021/12/01 05:52:47;;;;;;;4.85;2.53;;;;;;;;;;5015405;28;20034;-89
2021/12/01 05:55:15;;;;;;;6.22;2.60;;;;;;;;;;5022752;28;20037;-90
2021/12/01 05:57:41;;;;;;;5.90;2.72;;;;;;;;;;5021279;28;20034;-91
2021/12/01 06:00:11;;;;;;;6.78;2.92;;;;;;;;;;5029747;28;20026;-90
2021/12/01 06:02:37;;;;;;;6.63;2.67;;;;;;;;;;5013739;28;20029;-89
2021/12/01 06:05:04;;;;;;;8.02;3.03;;;;;;;;;;5012774;28;20032;-84
2021/12/01 06:07:31;;;;;;;5.13;2.85;;;;;;;;;;5012442;28;20064;-85
2021/12/01 06:10:01;;;;;;;4.93;2.50;;;;;;;;;;5012781;28;20400;-84
2021/12/01 06:12:28;;;;;;;5.88;2.90;;;;;;;;;;5013111;28;20033;-87
2021/12/01 06:14:55;;;;;;;5.53;2.70;;;;;;;;;;5011189;28;20041;-86
2021/12/01 06:17:21;;;;;;;5.07;3.25;;;;;;;;;;5019992;28;20033;-86
2021/12/01 06:19:47;;;;;;;5.65;2.42;;;;;;;;;;5027023;28;20033;-85
2021/12/01 06:22:13;;;;;;;6.00;2.75;;;;;;;;;;5014788;28;20050;-80
2021/12/01 06:24:39;;;;;;;5.93;2.70;;;;;;;;;;5016788;28;20380;-80
2021/12/01 06:27:06;;;;;;;5.25;2.58;;;;;;;;;;5010344;28;20484;-80
2021/12/01 06:29:33;;;;;;;6.57;2.40;;;;;;;;;;5013717;28;20487;-83
2021/12/01 06:31:59;;;;;;;5.20;2.95;;;;;;;;;;5012076;28;20041;-80
2021/12/01 06:34:25;;;;;;;6.38;2.72;;;;;;;;;;5012791;28;20057;-80
2021/12/01 06:36:51;;;;;;;6.63;2.50;;;;;;;;;;5018287;28;20030;-78
2021/12/01 06:39:17;;;;;;;4.57;2.30;;;;;;;;;;5014148;28;20060;-79
2021/12/01 06:41:43;;;;;;;4.85;2.83;;;;;;;;;;5014744;28;20034;-80
2021/12/01 06:44:12;;;;;;;7.97;3.80;;;;;;;;;;5018687;28;20033;-79
2021/12/01 06:46:38;;;;;;;4.80;2.75;;;;;;;;;;5012182;28;20014;-82
2021/12/01 06:49:04;;;;;;;6.10;2.50;;;;;;;;;;5017588;28;20153;-80
2021/12/01 06:51:30;;;;;;;5.85;2.58;;;;;;;;;;5024998;28;20526;-84
2021/12/01 06:53:56;;;;;;;5.40;2.67;;;;;;;;;;5024770;28;20049;-89
2021/12/01 06:56:22;;;;;;;6.28;2.40;;;;;;;;;;5030740;28;20044;-84
2021/12/01 06:58:50;;;;;;;6.40;2.35;;;;;;;;;;5031582;28;20032;-84
2021/12/01 07:01:16;;;;;;;4.13;2.17;;;;;;;;;;5038464;28;20022;-87
2021/12/01 07:03:42;;;;;;;3.92;2.33;;;;;;;;;;5040626;28;20025;-86
2021/12/01 07:06:08;;;;;;;3.83;2.10;;;;;;;;;;5031635;28;20026;-86
2021/12/01 07:08:35;;;;;;;4.05;2.25;;;;;;;;;;5019036;28;20069;-85
2021/12/01 07:11:02;;;;;;;4.80;2.17;;;;;;;;;;5018116;28;20044;-82
2021/12/01 07:13:33;;;;;;;4.35;2.10;;;;;;;;;;5021336;28;20022;-86
2021/12/01 07:16:01;;;;;;;4.80;2.50;;;;;;;;;;5017350;28;20029;-84
2021/12/01 07:18:27;;;;;;;4.05;1.90;;;;;;;;;;5016094;28;20037;-83
2021/12/01 07:20:52;;;;;;;7.38;2.80;;;;;;;;;;5019749;28;20046;-82
2021/12/01 07:23:18;;;;;;;2.88;1.77;;;;;;;;;;5001859;28;20039;-81
2021/12/01 07:25:44;;;;;;;2.95;1.83;;;;;;;;;;5004146;28;20045;-80
2021/12/01 07:28:10;;;;;;;3.60;1.92;;;;;;;;;;5016442;28;20053;-83
2021/12/01 07:30:39;;;;;;;3.67;1.63;;;;;;;;;;5022829;28;20041;-79
2021/12/01 07:33:06;;;;;;;5.43;2.03;;;;;;;;;;4999721;28;20049;-81
2021/12/01 07:35:32;;;;;;;3.13;1.80;;;;;;;;;;5012309;28;20042;-80
2021/12/01 07:37:58;;;;;;;4.25;1.83;;;;;;;;;;5007966;28;20049;-80
2021/12/01 07:40:24;;;;;;;3.25;1.83;;;;;;;;;;5009102;28;20034;-78
2021/12/01 07:42:51;;;;;;;3.25;1.60;;;;;;;;;;5010562;28;20384;-83
2021/12/01 07:45:17;;;;;;;5.00;1.88;;;;;;;;;;5013630;28;20042;-81
2021/12/01 07:47:43;;;;;;;3.25;1.60;;;;;;;;;;5004479;28;20041;-81
2021/12/01 07:50:10;;;;;;;5.70;2.83;;;;;;;;;;5004627;28;20139;-81
2021/12/01 07:52:38;;;;;;;3.75;1.70;;;;;;;;;;5007454;28;20519;-77
2021/12/01 07:55:07;;;;;;;3.63;1.70;;;;;;;;;;5005085;28;20324;-79
2021/12/01 07:57:33;;;;;;;3.53;1.90;;;;;;;;;;4996894;28;20061;-79
2021/12/01 07:59:59;;;;;;;6.70;1.90;;;;;;;;;;5005025;28;20030;-74
2021/12/01 08:02:25;;;;;;;3.40;1.65;;;;;;;;;;5016662;28;20452;-78
2021/12/01 08:04:51;;;;;;;2.97;1.63;;;;;;;;;;5015848;28;20045;-77
2021/12/01 08:07:18;;;;;;;3.08;1.63;;;;;;;;;;5017694;28;20671;-82
2021/12/01 08:09:44;;;;;;;1.90;1.55;;;;;;;;;;5017864;28;20041;-77
2021/12/01 08:12:11;;;;;;;2.78;1.55;;;;;;;;;;5009171;28;20049;-78
2021/12/01 08:14:40;;;;;;;2.70;1.58;;;;;;;;;;5013261;28;20044;-77
2021/12/01 08:17:05;;;;;;;3.80;1.70;;;;;;;;;;5015622;28;20424;-78
2021/12/01 08:19:31;;;;;;;2.75;1.50;;;;;;;;;;5014341;28;20044;-77
2021/12/01 08:21:57;;;;;;;3.83;1.90;;;;;;;;;;5018420;28;20049;-76
2021/12/01 08:24:23;;;;;;;6.13;3.03;;;;;;;;;;5012045;28;20042;-75
2021/12/01 08:26:49;;;;;;;2.55;1.55;;;;;;;;;;5017852;28;20062;-85
2021/12/01 08:29:16;;;;;;;4.00;1.73;;;;;;;;;;5020905;28;20060;-87
2021/12/01 08:31:42;;;;;;;3.80;1.70;;;;;;;;;;5015226;28;20472;-87
2021/12/01 08:34:09;;;;;;;1.95;1.50;;;;;;;;;;5012628;28;20053;-86
2021/12/01 08:36:35;;;;;;;3.42;1.27;;;;;;;;;;5019308;28;20487;-84
2021/12/01 08:39:01;;;;;;;2.40;1.50;;;;;;;;;;5014748;28;20041;-84
2021/12/01 08:41:27;;;;;;;2.25;1.45;;;;;;;;;;5014524;28;20472;-78
2021/12/01 08:43:53;;;;;;;1.85;1.27;;;;;;;;;;5028088;28;20038;-81
2021/12/01 08:46:19;;;;;;;4.85;1.40;;;;;;;;;;5020521;28;20364;-80
2021/12/01 08:48:45;;;;;;;1.70;1.02;;;;;;;;;;5009475;28;20045;-79
2021/12/01 08:51:11;;;;;;;3.45;1.30;;;;;;;;;;5034742;28;20045;-78
2021/12/01 08:53:41;;;;;;;2.03;1.10;;;;;;;;;;4980865;28;1130130;-77
2021/12/01 08:56:08;;;;;;;6.18;2.40;;;;;;;;;;5026944;28;20049;-79
2021/12/01 08:58:34;;;;;;;7.57;3.88;;;;;;;;;;5011643;28;20061;-80
2021/12/01 09:01:00;;;;;;;1.45;1.20;;;;;;;;;;5029749;28;20045;-82
2021/12/01 09:03:27;;;;;;;9.70;2.97;;;;;;;;;;5010070;28;21503;-84
2021/12/01 09:05:54;;;;;;;1.60;1.20;;;;;;;;;;4986706;28;20468;-82
2021/12/01 09:08:22;;;;;;;2.08;1.20;;;;;;;;;;5012182;28;20038;-84
2021/12/01 09:10:52;;;;;;;2.10;1.20;;;;;;;;;;5011927;28;20049;-80
2021/12/01 09:13:20;;;;;;;1.40;1.00;;;;;;;;;;5014969;28;20049;-79
2021/12/01 09:15:47;;;;;;;3.33;1.30;;;;;;;;;;5003123;28;20054;-76
2021/12/01 09:18:13;;;;;;;2.20;1.15;;;;;;;;;;5018778;28;20049;-81
2021/12/01 09:20:39;;;;;;;1.42;0.98;;;;;;;;;;5007458;28;20042;-84
2021/12/01 09:23:06;;;;;;;1.15;1.05;;;;;;;;;;5004820;28;20061;-85
2021/12/01 09:25:33;;;;;;;1.10;0.90;;;;;;;;;;5012147;28;20046;-83
2021/12/01 09:28:00;;;;;;;1.50;1.20;;;;;;;;;;5012359;28;20050;-86
2021/12/01 09:30:26;;;;;;;1.83;0.93;;;;;;;;;;4995569;28;20117;-86
2021/12/01 09:32:52;;;;;;;1.67;1.13;;;;;;;;;;5008564;28;20041;-77
2021/12/01 09:35:18;;;;;;;1.95;0.98;;;;;;;;;;5011636;28;20419;-75
2021/12/01 09:37:44;;;;;;;1.85;0.93;;;;;;;;;;5011723;28;20049;-76
2021/12/01 09:40:17;;;;;;;1.65;1.02;;;;;;;;;;5018560;28;20060;-78
2021/12/01 09:42:52;;;;;;;0.80;0.80;;;;;;;;;;5011546;28;20029;-78
2021/12/01 09:45:21;;;;;;;1.27;0.75;;;;;;;;;;5027854;28;20048;-77
2021/12/01 09:47:50;;;;;;;1.05;0.90;;;;;;;;;;5021341;28;20041;-78
2021/12/01 09:50:16;;;;;;;1.10;0.85;;;;;;;;;;5032963;28;20049;-79
2021/12/01 09:52:43;;;;;;;3.70;1.42;;;;;;;;;;5006775;28;20042;-77
2021/12/01 09:55:12;;;;;;;5.03;2.17;;;;;;;;;;5022132;28;20045;-77
2021/12/01 09:58:00;;;;;;;1.10;1.00;;;;;;;;;;5017969;28;20072;-77
2021/12/01 10:00:28;;;;;;;0.85;0.80;;;;;;;;;;5007478;28;20038;-79
2021/12/01 10:02:56;;;;;;;1.48;1.10;;;;;;;;;;5018837;28;20044;-84
2021/12/01 10:05:50;;;;;;;1.00;0.88;;;;;;;;;;5030241;28;20177;-81
2021/12/01 10:08:37;;;;;;;1.02;0.90;;;;;;;;;;5015807;28;20056;-82
2021/12/01 10:11:07;;;;;;;2.83;0.80;;;;;;;;;;5000329;28;20521;-76
2021/12/01 10:13:37;;;;;;;1.73;0.80;;;;;;;;;;5011100;28;20046;-73
2021/12/01 10:16:06;;;;;;;0.80;0.80;;;;;;;;;;5019424;28;20049;-76
2021/12/01 10:18:37;;;;;;;0.80;0.80;;;;;;;;;;5010946;28;20494;-82
2021/12/01 10:21:31;;;;;;;0.60;0.60;;;;;;;;;;5021396;28;20041;-77
2021/12/01 10:24:03;;;;;;;0.52;0.52;;;;;;;;;;4996870;28;20171;-76
2021/12/01 10:26:31;;;;;;;1.90;0.68;;;;;;;;;;5032171;28;20064;-78
2021/12/01 10:29:01;;;;;;;1.48;0.75;;;;;;;;;;5010487;28;20053;-75
2021/12/01 10:31:35;;;;;;;1.02;0.82;;;;;;;;;;5013728;28;20049;-77
2021/12/01 10:34:22;;;;;;;1.55;0.80;;;;;;;;;;5012752;28;20049;-78
2021/12/01 10:36:51;;;;;;;0.77;0.77;;;;;;;;;;5007232;28;20041;-76
2021/12/01 10:39:17;;;;;;;0.38;0.38;;;;;;;;;;4994966;28;20041;-76
2021/12/01 10:41:43;;;;;;;2.15;0.80;;;;;;;;;;5009059;28;20160;-77
2021/12/01 10:44:15;;;;;;;0.60;0.60;;;;;;;;;;5015198;28;20033;-79
2021/12/01 10:46:52;;;;;;;2.35;0.60;;;;;;;;;;5016411;28;20053;-78
2021/12/01 10:49:44;;;;;;;1.85;0.40;;;;;;;;;;5017112;28;20053;-80
2021/12/01 10:52:36;;;;;;;1.02;0.60;;;;;;;;;;5017716;28;20048;-78
2021/12/01 10:55:13;;;;;;;1.67;0.60;;;;;;;;;;5017957;28;20479;-78
2021/12/01 10:57:42;;;;;;;0.50;0.50;;;;;;;;;;5015615;28;20049;-74
2021/12/01 11:00:26;;;;;;;0.60;0.60;;;;;;;;;;5015292;28;20030;-78
2021/12/01 11:02:54;;;;;;;8.07;3.78;;;;;;;;;;5009643;28;20038;-78
2021/12/01 11:05:28;;;;;;;2.97;1.52;;;;;;;;;;5011230;28;20041;-77
2021/12/01 11:07:54;;;;;;;1.20;0.80;;;;;;;;;;5009398;28;20045;-78
2021/12/01 11:10:24;;;;;;;1.05;0.73;;;;;;;;;;4998231;28;20034;-79
2021/12/01 11:12:58;;;;;;;0.75;0.75;;;;;;;;;;5007098;28;20365;-76
2021/12/01 11:15:32;;;;;;;2.45;1.20;;;;;;;;;;5009770;28;20033;-69
2021/12/01 11:17:59;;;;;;;1.30;0.80;;;;;;;;;;5009585;28;20060;-68
2021/12/01 11:20:47;;;;;;;2.95;0.82;;;;;;;;;;5012962;28;20049;-75
2021/12/01 11:23:21;;;;;;;0.68;0.68;;;;;;;;;;5010426;28;20387;-78
2021/12/01 11:25:57;;;;;;;1.10;1.00;;;;;;;;;;5006675;28;20508;-79
2021/12/01 11:28:26;;;;;;;0.80;0.68;;;;;;;;;;5005742;28;20038;-77
2021/12/01 11:30:59;;;;;;;1.55;0.90;;;;;;;;;;5009251;28;20038;-77
2021/12/01 11:33:26;;;;;;;1.75;0.90;;;;;;;;;;5007055;28;20036;-76
2021/12/01 11:35:55;;;;;;;17.13;7.10;;;;;;;;;;5012229;28;20547;-78
2021/12/01 11:38:21;;;;;;;6.15;3.05;;;;;;;;;;5021303;28;20048;-79
2021/12/01 11:40:48;;;;;;;0.73;0.73;;;;;;;;;;5029604;28;20028;-79
2021/12/01 11:43:18;;;;;;;1.05;0.88;;;;;;;;;;4994975;28;20042;-79
2021/12/01 11:45:46;;;;;;;1.02;0.90;;;;;;;;;;5022737;28;20045;-79
2021/12/01 11:48:29;;;;;;;0.88;0.88;;;;;;;;;;5014813;28;20041;-79
2021/12/01 11:50:58;;;;;;;0.70;0.57;;;;;;;;;;5035888;28;20404;-80
2021/12/01 11:53:32;;;;;;;0.70;0.60;;;;;;;;;;5026735;28;20041;-81
2021/12/01 11:56:00;;;;;;;0.75;0.60;;;;;;;;;;5013960;28;20050;-81
2021/12/01 11:58:41;;;;;;;1.05;0.60;;;;;;;;;;5014170;28;20041;-81
2021/12/01 12:01:30;;;;;;;1.08;0.80;;;;;;;;;;5012067;28;20396;-81
2021/12/01 12:03:59;;;;;;;0.90;0.90;;;;;;;;;;4995087;28;20045;-81
2021/12/01 12:06:34;;;;;;;0.47;0.47;;;;;;;;;;5013727;28;20018;-81
2021/12/01 12:09:08;;;;;;;0.75;0.70;;;;;;;;;;5014310;28;20034;-81
2021/12/01 12:11:45;;;;;;;1.30;0.95;;;;;;;;;;5014165;28;20045;-81
2021/12/01 12:14:22;;;;;;;2.20;1.25;;;;;;;;;;5013528;28;20018;-82
2021/12/01 12:17:40;;;;;;;2.70;0.90;;;;;;;;;;5014091;28;20036;-82
2021/12/01 12:20:23;;;;;;;3.03;1.10;;;;;;;;;;4996252;28;20034;-82
2021/12/01 12:22:49;;;;;;;1.17;1.05;;;;;;;;;;5014743;28;20042;-81
2021/12/01 12:25:57;;;;;;;1.27;0.75;;;;;;;;;;5017515;28;20032;-88
2021/12/01 12:28:24;;;;;;;0.70;0.70;;;;;;;;;;5026190;28;20033;-80
2021/12/01 12:30:55;;;;;;;0.43;0.43;;;;;;;;;;5034053;28;20048;-81
2021/12/01 12:33:28;;;;;;;1.05;1.00;;;;;;;;;;5017344;28;20365;-80
2021/12/01 12:36:03;;;;;;;1.95;1.08;;;;;;;;;;5013460;28;20037;-80
2021/12/01 12:38:30;;;;;;;1.25;0.90;;;;;;;;;;5015325;28;20408;-80
2021/12/01 12:41:14;;;;;;;1.27;1.10;;;;;;;;;;5021140;28;20026;-80
2021/12/01 12:43:42;;;;;;;1.55;1.00;;;;;;;;;;5023450;28;21236;-80
2021/12/01 12:46:12;;;;;;;1.10;0.90;;;;;;;;;;5028686;28;20056;-80
2021/12/01 12:48:55;;;;;;;0.80;0.80;;;;;;;;;;5009907;28;20050;-81
2021/12/01 12:51:33;;;;;;;0.65;0.60;;;;;;;;;;5010080;28;20038;-80
2021/12/01 12:53:59;;;;;;;1.83;1.30;;;;;;;;;;5010800;28;21393;-80
2021/12/01 12:56:38;;;;;;;1.42;0.95;;;;;;;;;;5000324;28;20040;-80
2021/12/01 12:59:32;;;;;;;1.65;0.85;;;;;;;;;;5008631;28;20054;-83
2021/12/01 13:02:07;;;;;;;1.60;1.10;;;;;;;;;;5010348;28;20519;-84
2021/12/01 13:04:49;;;;;;;2.13;1.30;;;;;;;;;;5013451;28;20046;-82
2021/12/01 13:07:34;;;;;;;;;;;;;;;;;;5009566;28;20048;-83
2021/12/01 13:10:27;;;;;;;18.23;8.13;;;;;;;;;;5003113;28;19921;-83
2021/12/01 13:12:56;;;;;;;1.45;1.05;;;;;;;;;;5011368;28;20034;-83
2021/12/01 13:15:27;;;;;;;1.88;1.20;;;;;;;;;;5000614;28;20041;-82
2021/12/01 13:17:59;;;;;;;2.15;1.20;;;;;;;;;;5013827;28;20476;-83
2021/12/01 13:20:38;;;;;;;1.27;1.02;;;;;;;;;;5014557;28;20038;-83
2021/12/01 13:23:13;;;;;;;2.28;1.58;;;;;;;;;;5013594;28;20046;-83
2021/12/01 13:25:42;;;;;;;3.83;1.45;;;;;;;;;;5013709;28;20037;-81
2021/12/01 13:28:10;;;;;;;1.38;1.10;;;;;;;;;;5002172;28;20065;-82
2021/12/01 13:30:53;;;;;;;1.95;1.27;;;;;;;;;;5007156;28;20045;-83
2021/12/01 13:33:19;;;;;;;2.03;1.20;;;;;;;;;;5012294;28;20504;-82
2021/12/01 13:35:45;;;;;;;1.98;1.00;;;;;;;;;;5012161;28;20049;-82
2021/12/01 13:38:11;;;;;;;3.33;1.65;;;;;;;;;;5013092;28;20053;-82
2021/12/01 13:40:39;;;;;;;3.88;1.25;;;;;;;;;;5013247;28;20053;-81
2021/12/01 13:43:17;;;;;;;1.50;0.95;;;;;;;;;;5012477;28;20037;-81
2021/12/01 13:46:16;;;;;;;1.13;1.00;;;;;;;;;;5015441;28;20052;-81
2021/12/01 13:48:55;;;;;;;2.08;1.23;;;;;;;;;;5017512;28;20049;-80
2021/12/01 13:51:23;;;;;;;2.58;1.05;;;;;;;;;;5028166;28;20193;-81
2021/12/01 13:53:50;;;;;;;2.90;1.48;;;;;;;;;;5035266;28;20050;-82
2021/12/01 13:56:19;;;;;;;1.90;1.33;;;;;;;;;;5029031;28;20038;-81
2021/12/01 13:58:55;;;;;;;1.00;0.90;;;;;;;;;;5010178;28;20047;-82
2021/12/01 14:01:22;;;;;;;1.33;1.00;;;;;;;;;;4997394;28;20030;-82
2021/12/01 14:04:03;;;;;;;1.70;0.95;;;;;;;;;;5012449;28;20041;-82
2021/12/01 14:06:32;;;;;;;1.45;1.23;;;;;;;;;;5011153;28;20061;-82
2021/12/01 14:09:11;;;;;;;2.25;1.20;;;;;;;;;;5011961;28;20045;-81
2021/12/01 14:11:51;;;;;;;3.42;1.20;;;;;;;;;;5011754;28;20034;-81
2021/12/01 14:14:24;;;;;;;2.85;1.20;;;;;;;;;;5011654;28;20049;-81
2021/12/01 14:17:00;;;;;;;1.17;1.00;;;;;;;;;;5009858;28;20049;-82
2021/12/01 14:19:31;;;;;;;7.65;3.45;;;;;;;;;;5010866;28;20030;-81
2021/12/01 14:21:57;;;;;;;0.98;0.82;;;;;;;;;;5011634;28;20049;-81
2021/12/01 14:24:28;;;;;;;1.05;0.88;;;;;;;;;;5009426;28;20117;-80
2021/12/01 14:27:03;;;;;;;2.03;1.10;;;;;;;;;;5007830;28;20057;-80
2021/12/01 14:29:32;;;;;;;1.75;0.90;;;;;;;;;;5011246;28;20037;-81
2021/12/01 14:32:02;;;;;;;1.02;0.93;;;;;;;;;;5011143;28;20053;-81
2021/12/01 14:34:31;;;;;;;1.20;1.10;;;;;;;;;;4997019;28;20049;-81
2021/12/01 14:36:59;;;;;;;2.00;1.02;;;;;;;;;;5007081;28;20053;-81
2021/12/01 14:39:25;;;;;;;1.27;1.00;;;;;;;;;;5006737;28;20042;-81
2021/12/01 14:41:55;;;;;;;1.00;0.80;;;;;;;;;;5024995;28;20040;-81
2021/12/01 14:44:29;;;;;;;1.08;0.70;;;;;;;;;;5011043;28;20037;-82
2021/12/01 14:47:03;;;;;;;0.90;0.90;;;;;;;;;;5008643;28;20393;-81
2021/12/01 14:49:56;;;;;;;1.10;0.93;;;;;;;;;;5019754;28;20050;-82
2021/12/01 14:52:28;;;;;;;1.02;0.90;;;;;;;;;;5001533;28;20396;-82
2021/12/01 14:55:09;;;;;;;1.27;1.00;;;;;;;;;;5007654;28;20054;-83
2021/12/01 14:57:45;;;;;;;1.30;1.05;;;;;;;;;;4996173;28;20056;-84
2021/12/01 15:00:11;;;;;;;1.80;0.95;;;;;;;;;;5010894;28;20038;-83
2021/12/01 15:02:38;;;;;;;4.47;1.48;;;;;;;;;;5010358;28;20484;-84
2021/12/01 15:05:26;;;;;;;3.38;1.60;;;;;;;;;;5010421;28;20042;-84